Time;durP1;ratioP1;P1;durP2;ratioP2;P2;SDS_P1;SDS_P2;PMS_P1;PMS_P2;Temp;Humidity;BMP_temperature;BMP_pressure;BME280_temperature;BME280_humidity;BME280_pressure;Samples;Min_cycle;Max_cycle;Signal;HPM_P1;HPM_P2
2023/08/17 00:00:15;;;;;;;8.90;4.03;;;27.80;84.30;;;;;;6214083;23;20005;-74
2023/08/17 00:02:41;;;;;;;7.78;4.40;;;27.80;84.70;;;;;;6214487;23;20004;-74
2023/08/17 00:05:07;;;;;;;8.25;5.60;;;27.70;84.50;;;;;;6191003;23;20472;-73
2023/08/17 00:07:33;;;;;;;9.10;5.75;;;27.70;85.10;;;;;;6184468;23;20025;-73
2023/08/17 00:09:59;;;;;;;7.28;4.68;;;27.60;85.40;;;;;;6184587;23;20027;-74
2023/08/17 00:12:25;;;;;;;7.82;4.20;;;27.60;85.80;;;;;;6184450;23;20506;-74
2023/08/17 00:14:51;;;;;;;6.82;3.78;;;27.50;86.00;;;;;;6183768;23;20048;-74
2023/08/17 00:17:17;;;;;;;8.75;4.32;;;27.50;86.30;;;;;;6183999;23;20092;-73
2023/08/17 00:19:43;;;;;;;6.72;3.83;;;27.40;86.80;;;;;;6184137;23;20435;-73
2023/08/17 00:22:08;;;;;;;9.48;4.10;;;27.40;87.20;;;;;;6183897;23;20005;-73
2023/08/17 00:24:34;;;;;;;7.68;4.70;;;27.40;87.70;;;;;;6184241;23;19997;-74
2023/08/17 00:27:00;;;;;;;6.93;4.85;;;27.40;88.20;;;;;;6184173;23;20001;-73
2023/08/17 00:29:25;;;;;;;8.02;4.93;;;27.40;88.60;;;;;;6157395;23;20339;-73
2023/08/17 00:31:52;;;;;;;8.18;4.38;;;27.30;88.90;;;;;;6183769;23;20001;-75
2023/08/17 00:34:18;;;;;;;10.10;4.80;;;27.30;88.80;;;;;;6183867;23;20502;-73
2023/08/17 00:36:44;;;;;;;6.88;4.30;;;27.30;89.10;;;;;;6183923;23;20024;-73
2023/08/17 00:39:10;;;;;;;7.00;4.80;;;27.30;89.30;;;;;;6184067;23;20338;-73
2023/08/17 00:41:36;;;;;;;9.60;5.10;;;27.40;89.40;;;;;;6183794;23;20016;-75
2023/08/17 00:44:01;;;;;;;8.32;5.03;;;27.30;89.70;;;;;;6184096;23;20005;-74
2023/08/17 00:46:27;;;;;;;7.43;5.55;;;27.30;89.90;;;;;;6184036;23;20420;-73
2023/08/17 00:48:54;;;;;;;9.73;5.15;;;27.40;90.00;;;;;;6184134;23;20103;-74
2023/08/17 00:51:23;;;;;;;9.75;4.50;;;27.30;90.10;;;;;;6183929;23;20005;-74
2023/08/17 00:53:54;;;;;;;8.40;5.13;;;27.30;90.20;;;;;;6183667;23;20036;-73
2023/08/17 00:56:21;;;;;;;8.93;5.15;;;27.30;90.30;;;;;;6183558;23;20032;-74
2023/08/17 00:58:48;;;;;;;9.75;5.05;;;27.20;90.40;;;;;;6157507;23;20013;-74
2023/08/17 01:01:14;;;;;;;10.52;4.72;;;27.30;90.50;;;;;;6182317;23;20001;-73
2023/08/17 01:03:43;;;;;;;8.25;4.53;;;27.20;90.50;;;;;;6183526;23;20077;-73
2023/08/17 01:06:09;;;;;;;11.60;4.97;;;27.30;90.40;;;;;;6184132;23;20009;-75
2023/08/17 01:08:39;;;;;;;9.32;4.72;;;27.30;90.40;;;;;;6184874;23;20102;-73
2023/08/17 01:11:20;;;;;;;8.13;4.43;;;27.30;90.30;;;;;;6184011;23;20076;-75
2023/08/17 01:14:09;;;;;;;6.10;4.15;;;27.30;90.40;;;;;;6183879;23;20125;-74
2023/08/17 01:17:03;;;;;;;7.93;4.90;;;27.30;90.10;;;;;;6183642;23;20020;-74
2023/08/17 01:19:29;;;;;;;8.00;4.53;;;27.30;90.00;;;;;;6183790;23;20427;-73
2023/08/17 01:22:02;;;;;;;9.18;4.88;;;27.30;90.00;;;;;;6183881;23;20432;-73
2023/08/17 01:24:28;;;;;;;;;;;27.30;90.00;;;;;;6157676;23;20002;-73
2023/08/17 01:26:54;;;;;;;8.68;4.80;;;27.30;90.10;;;;;;6185276;23;20286;-74
2023/08/17 01:29:20;;;;;;;7.65;4.40;;;27.20;90.00;;;;;;6185728;23;20013;-75
2023/08/17 01:32:06;;;;;;;10.40;4.65;;;27.20;90.00;;;;;;6185597;23;20008;-72
2023/08/17 01:34:42;;;;;;;8.73;4.90;;;27.20;90.30;;;;;;6185525;23;20038;-73
2023/08/17 01:37:11;;;;;;;12.68;5.20;;;27.20;90.40;;;;;;6185658;23;20092;-73
2023/08/17 01:39:43;;;;;;;9.88;5.03;;;27.20;90.30;;;;;;6185583;23;20080;-74
2023/08/17 01:42:12;;;;;;;9.97;5.10;;;27.10;90.40;;;;;;6185620;23;20001;-74
2023/08/17 01:44:38;;;;;;;12.98;5.07;;;27.10;90.50;;;;;;6159178;23;20398;-73
2023/08/17 01:47:04;;;;;;;8.80;4.88;;;27.10;90.70;;;;;;6185891;23;20013;-74
2023/08/17 01:49:30;;;;;;;9.93;5.47;;;27.10;90.80;;;;;;6159209;23;20011;-73
2023/08/17 01:51:55;;;;;;;12.70;4.90;;;27.10;90.80;;;;;;6185773;23;20005;-73
2023/08/17 01:54:21;;;;;;;8.90;4.50;;;27.10;90.80;;;;;;6185812;23;20015;-73
2023/08/17 01:56:47;;;;;;;11.48;5.20;;;27.10;90.70;;;;;;6185349;23;20009;-72
2023/08/17 01:59:13;;;;;;;10.43;5.60;;;27.10;90.80;;;;;;6185951;23;20008;-72
2023/08/17 02:01:38;;;;;;;12.90;4.93;;;27.10;90.90;;;;;;6185327;23;20012;-74
2023/08/17 02:04:04;;;;;;;10.32;5.47;;;27.10;91.00;;;;;;6185082;23;20019;-73
2023/08/17 02:06:30;;;;;;;7.30;4.70;;;27.10;91.00;;;;;;6185529;23;20348;-73
2023/08/17 02:08:56;;;;;;;10.20;4.85;;;27.10;91.00;;;;;;6134119;23;20009;-74
2023/08/17 02:11:21;;;;;;;7.82;5.00;;;27.00;91.10;;;;;;6185242;23;20016;-73
2023/08/17 02:13:47;;;;;;;11.20;6.13;;;27.00;91.20;;;;;;6185297;23;20020;-73
2023/08/17 02:16:13;;;;;;;8.75;5.20;;;26.90;91.30;;;;;;6185170;23;20057;-73
2023/08/17 02:18:38;;;;;;;9.68;5.25;;;26.80;91.50;;;;;;6185201;23;20001;-74
2023/08/17 02:21:04;;;;;;;11.00;6.10;;;26.80;91.70;;;;;;6185358;23;20001;-74
2023/08/17 02:23:30;;;;;;;10.35;6.00;;;26.80;91.20;;;;;;6185339;23;20395;-74
2023/08/17 02:25:55;;;;;;;10.95;5.75;;;26.80;90.40;;;;;;6158879;23;20009;-74
2023/08/17 02:28:21;;;;;;;10.20;6.32;;;26.80;89.10;;;;;;6185182;23;20029;-73
2023/08/17 02:30:47;;;;;;;10.93;6.32;;;26.80;87.80;;;;;;6185107;23;20068;-72
2023/08/17 02:33:13;;;;;;;8.88;5.72;;;26.80;86.40;;;;;;6185840;23;20009;-75
2023/08/17 02:35:39;;;;;;;12.13;6.60;;;26.80;85.10;;;;;;6185362;23;20412;-74
2023/08/17 02:38:04;;;;;;;8.10;6.03;;;26.80;84.30;;;;;;6185063;23;19997;-73
2023/08/17 02:40:30;;;;;;;10.40;6.35;;;26.80;84.00;;;;;;6184956;23;19997;-73
2023/08/17 02:42:56;;;;;;;10.95;6.05;;;26.80;83.10;;;;;;6185498;23;20009;-73
2023/08/17 02:45:22;;;;;;;13.55;6.32;;;26.80;82.70;;;;;;6185123;23;20001;-73
2023/08/17 02:47:47;;;;;;;9.75;6.10;;;26.70;82.20;;;;;;6158777;23;20017;-73
2023/08/17 02:50:13;;;;;;;12.30;6.28;;;26.70;81.40;;;;;;6158768;23;20376;-74
2023/08/17 02:52:39;;;;;;;8.35;5.97;;;26.70;81.30;;;;;;6185483;23;20096;-74
2023/08/17 02:55:05;;;;;;;10.45;5.95;;;26.60;81.10;;;;;;6185020;23;20052;-72
2023/08/17 02:57:31;;;;;;;9.60;5.40;;;26.60;80.90;;;;;;6184793;23;20343;-75
2023/08/17 02:59:56;;;;;;;9.60;5.60;;;26.60;80.30;;;;;;6185294;23;19997;-73
2023/08/17 03:02:22;;;;;;;9.95;5.93;;;26.60;80.00;;;;;;6185128;23;20005;-73
2023/08/17 03:04:47;;;;;;;8.93;5.28;;;26.70;79.90;;;;;;6166118;23;20021;-73
2023/08/17 03:07:13;;;;;;;8.15;5.28;;;26.70;79.60;;;;;;6155292;23;20001;-75
2023/08/17 03:09:39;;;;;;;10.75;5.35;;;26.60;79.60;;;;;;6154819;23;19997;-72
2023/08/17 03:12:05;;;;;;;7.13;4.88;;;26.60;79.30;;;;;;6155374;23;20056;-73
2023/08/17 03:14:30;;;;;;;8.48;5.35;;;26.60;79.30;;;;;;6155236;23;20069;-73
2023/08/17 03:16:56;;;;;;;7.03;5.00;;;26.60;79.10;;;;;;6155239;23;20347;-73
2023/08/17 03:19:22;;;;;;;7.65;5.25;;;26.50;78.80;;;;;;6154834;23;19998;-73
2023/08/17 03:21:47;;;;;;;10.02;5.60;;;26.50;78.30;;;;;;6154776;23;20005;-73
2023/08/17 03:24:13;;;;;;;9.50;5.32;;;26.50;78.30;;;;;;6155155;23;20029;-74
2023/08/17 03:26:39;;;;;;;9.85;5.20;;;26.50;78.20;;;;;;6154727;23;20458;-73
2023/08/17 03:29:04;;;;;;;10.25;5.10;;;26.50;78.10;;;;;;6154928;23;20008;-74
2023/08/17 03:31:30;;;;;;;13.10;5.45;;;26.50;78.00;;;;;;6155061;23;20036;-73
2023/08/17 03:33:56;;;;;;;7.47;5.18;;;26.40;77.90;;;;;;6128502;23;20010;-72
2023/08/17 03:36:22;;;;;;;9.80;5.15;;;26.30;77.80;;;;;;6154687;23;20009;-73
2023/08/17 03:38:47;;;;;;;10.27;5.72;;;26.30;78.10;;;;;;6154797;23;20001;-73
2023/08/17 03:41:13;;;;;;;8.57;5.15;;;26.20;78.10;;;;;;6154563;23;20005;-73
2023/08/17 03:43:39;;;;;;;11.15;5.10;;;26.20;78.20;;;;;;6154815;23;20011;-73
2023/08/17 03:46:05;;;;;;;9.18;5.47;;;26.10;78.20;;;;;;6154570;23;19997;-73
2023/08/17 03:48:31;;;;;;;9.02;5.13;;;26.20;78.20;;;;;;6154216;23;19993;-73
2023/08/17 03:50:57;;;;;;;9.43;6.13;;;26.20;78.10;;;;;;6154561;23;20339;-73
2023/08/17 03:53:23;;;;;;;12.32;5.68;;;26.20;77.90;;;;;;6154872;23;20002;-73
2023/08/17 03:55:49;;;;;;;8.25;5.18;;;26.10;77.70;;;;;;6154904;23;20006;-73
2023/08/17 03:58:16;;;;;;;12.68;5.30;;;26.10;77.60;;;;;;6154748;23;20044;-73
2023/08/17 04:00:42;;;;;;;9.10;4.90;;;26.10;77.60;;;;;;6154548;23;19998;-74
2023/08/17 04:03:08;;;;;;;11.07;5.65;;;26.00;77.90;;;;;;6154646;23;20029;-73
2023/08/17 04:05:34;;;;;;;9.82;5.38;;;25.90;77.90;;;;;;6154414;23;20021;-73
2023/08/17 04:08:02;;;;;;;11.70;6.13;;;25.90;77.90;;;;;;6154362;23;20001;-72
2023/08/17 04:10:29;;;;;;;8.88;5.13;;;25.90;77.80;;;;;;6154787;23;20021;-74
2023/08/17 04:12:56;;;;;;;11.10;5.30;;;25.90;77.70;;;;;;6154198;23;20455;-74
2023/08/17 04:15:21;;;;;;;9.07;5.47;;;25.90;77.50;;;;;;6154598;23;20443;-74
2023/08/17 04:17:47;;;;;;;13.30;5.30;;;25.80;77.80;;;;;;6154400;23;20037;-74
2023/08/17 04:20:13;;;;;;;7.75;5.40;;;25.80;77.80;;;;;;6154580;23;20121;-73
2023/08/17 04:22:38;;;;;;;8.55;5.55;;;25.90;77.80;;;;;;6154476;23;20005;-73
2023/08/17 04:25:04;;;;;;;12.52;5.72;;;25.90;77.40;;;;;;6155037;23;20002;-75
2023/08/17 04:27:30;;;;;;;7.85;5.25;;;26.00;77.40;;;;;;6154950;23;20424;-72
2023/08/17 04:29:57;;;;;;;8.43;5.32;;;26.00;77.30;;;;;;6154256;23;20080;-73
2023/08/17 04:32:22;;;;;;;9.32;5.72;;;26.00;77.00;;;;;;6154278;23;20005;-73
2023/08/17 04:34:48;;;;;;;10.05;5.25;;;26.10;77.20;;;;;;6128419;23;20403;-73
2023/08/17 04:37:14;;;;;;;8.27;4.88;;;26.00;77.00;;;;;;6153916;23;20455;-73
2023/08/17 04:39:41;;;;;;;9.68;5.32;;;25.90;77.20;;;;;;6154344;23;20109;-73
2023/08/17 04:42:07;;;;;;;7.70;4.90;;;25.90;77.10;;;;;;6154508;23;20103;-74
2023/08/17 04:44:33;;;;;;;8.23;5.25;;;25.90;77.20;;;;;;6128029;23;20432;-74
2023/08/17 04:46:59;;;;;;;8.32;4.90;;;25.90;77.30;;;;;;6154395;23;20049;-74
2023/08/17 04:49:26;;;;;;;7.90;4.80;;;25.80;77.30;;;;;;6154016;23;20008;-74
2023/08/17 04:51:52;;;;;;;7.53;4.90;;;25.80;77.20;;;;;;6153735;23;20081;-73
2023/08/17 04:54:18;;;;;;;11.30;7.18;;;25.70;77.20;;;;;;6154437;23;20009;-73
2023/08/17 04:56:44;;;;;;;8.82;5.65;;;25.70;77.30;;;;;;6153787;23;20009;-73
2023/08/17 04:59:09;;;;;;;13.40;5.90;;;25.80;77.50;;;;;;6154114;23;19998;-72
2023/08/17 05:01:35;;;;;;;8.57;5.88;;;25.80;77.40;;;;;;6153876;23;20005;-72
2023/08/17 05:04:01;;;;;;;9.02;5.93;;;25.90;77.20;;;;;;6172368;23;20324;-73
2023/08/17 05:06:30;;;;;;;9.00;5.32;;;25.80;77.30;;;;;;6213730;23;20008;-73
2023/08/17 05:08:56;;;;;;;7.38;5.00;;;25.90;77.20;;;;;;6214040;23;20032;-74
2023/08/17 05:11:22;;;;;;;8.82;5.43;;;25.90;77.10;;;;;;6187158;23;20126;-73
2023/08/17 05:13:47;;;;;;;7.10;5.25;;;26.00;77.20;;;;;;6214031;23;20494;-73
2023/08/17 05:16:13;;;;;;;10.57;5.68;;;26.00;77.00;;;;;;6213925;23;20067;-73
2023/08/17 05:18:39;;;;;;;9.57;5.80;;;26.00;77.00;;;;;;6213872;23;20071;-74
2023/08/17 05:21:05;;;;;;;9.68;5.60;;;26.00;77.00;;;;;;6213901;23;20000;-73
2023/08/17 05:23:30;;;;;;;8.35;5.47;;;25.90;77.10;;;;;;6214159;23;20394;-73
2023/08/17 05:25:56;;;;;;;8.63;5.93;;;25.90;77.10;;;;;;6214447;23;20055;-74
2023/08/17 05:28:22;;;;;;;7.72;5.45;;;26.00;77.00;;;;;;6213560;23;20007;-74
2023/08/17 05:30:49;;;;;;;9.90;5.30;;;26.10;76.70;;;;;;6214124;23;20000;-75
2023/08/17 05:33:14;;;;;;;9.40;5.72;;;26.10;76.80;;;;;;6214150;23;20009;-73
2023/08/17 05:35:42;;;;;;;7.72;5.38;;;26.20;76.50;;;;;;6214151;23;20482;-74
2023/08/17 05:38:08;;;;;;;9.15;5.78;;;26.30;76.20;;;;;;6213662;23;20017;-73
2023/08/17 05:40:34;;;;;;;10.82;7.20;;;26.40;76.00;;;;;;6213778;23;20001;-75
2023/08/17 05:42:59;;;;;;;9.55;5.57;;;26.60;75.70;;;;;;6214095;23;20079;-73
2023/08/17 05:45:25;;;;;;;8.88;5.07;;;26.80;75.10;;;;;;6214037;23;19996;-73
2023/08/17 05:47:52;;;;;;;9.60;5.13;;;27.00;74.70;;;;;;6214783;23;20363;-73
2023/08/17 05:50:18;;;;;;;8.18;5.18;;;27.30;74.20;;;;;;6213977;23;20008;-74
2023/08/17 05:52:43;;;;;;;9.18;5.13;;;27.50;73.30;;;;;;6214108;23;20004;-74
2023/08/17 05:55:09;;;;;;;15.40;5.32;;;27.70;72.70;;;;;;6213911;23;20328;-74
2023/08/17 05:57:35;;;;;;;8.45;6.05;;;27.80;72.40;;;;;;6214059;23;20008;-73
2023/08/17 06:00:01;;;;;;;8.23;5.03;;;28.00;72.00;;;;;;6213888;23;20020;-75
2023/08/17 06:02:26;;;;;;;10.70;4.88;;;28.20;71.60;;;;;;6213796;23;20009;-75
2023/08/17 06:04:52;;;;;;;6.82;4.60;;;28.40;71.10;;;;;;6213655;23;20017;-74
2023/08/17 06:07:18;;;;;;;8.57;4.60;;;28.70;70.70;;;;;;6213797;23;20004;-72
2023/08/17 06:09:43;;;;;;;8.80;4.32;;;28.90;70.00;;;;;;6213808;23;20080;-74
2023/08/17 06:12:09;;;;;;;7.32;4.80;;;29.10;69.60;;;;;;6214940;23;19996;-74
2023/08/17 06:14:35;;;;;;;9.25;4.55;;;29.40;69.10;;;;;;6216022;23;20034;-75
2023/08/17 06:17:00;;;;;;;7.57;4.47;;;29.70;68.50;;;;;;6215510;23;20009;-73
2023/08/17 06:19:26;;;;;;;11.27;4.78;;;29.90;67.90;;;;;;6215291;23;20020;-71
2023/08/17 06:21:52;;;;;;;6.82;4.32;;;30.10;67.40;;;;;;6215594;23;20316;-72
2023/08/17 06:24:18;;;;;;;9.55;4.20;;;30.20;66.90;;;;;;6215817;23;20001;-73
2023/08/17 06:26:45;;;;;;;6.80;4.30;;;30.40;66.70;;;;;;6215544;23;20008;-74
2023/08/17 06:29:11;;;;;;;8.95;4.40;;;30.60;66.10;;;;;;6215706;23;20004;-73
2023/08/17 06:31:37;;;;;;;10.18;4.53;;;30.60;65.70;;;;;;6215640;23;20008;-74
2023/08/17 06:34:03;;;;;;;11.27;5.18;;;30.50;65.80;;;;;;6215295;23;20013;-73
2023/08/17 06:36:32;;;;;;;8.00;4.75;;;30.40;65.90;;;;;;6215102;23;20017;-73
2023/08/17 06:38:58;;;;;;;7.47;4.43;;;30.60;65.90;;;;;;6215733;23;20332;-73
2023/08/17 06:41:24;;;;;;;6.25;3.92;;;30.80;65.40;;;;;;6215317;23;19997;-74
2023/08/17 06:43:50;;;;;;;7.57;4.60;;;30.90;65.00;;;;;;6215392;23;20008;-74
2023/08/17 06:46:16;;;;;;;9.13;4.78;;;30.90;64.90;;;;;;6215149;23;20074;-72
2023/08/17 06:48:43;;;;;;;28.67;7.05;;;30.70;65.30;;;;;;6215121;23;19997;-73
2023/08/17 06:51:09;;;;;;;15.75;4.30;;;30.90;65.20;;;;;;6215588;23;20005;-73
2023/08/17 06:53:35;;;;;;;18.13;5.38;;;31.00;65.30;;;;;;6215584;23;20337;-73
2023/08/17 06:56:00;;;;;;;8.30;4.13;;;31.00;64.90;;;;;;6214861;23;20005;-73
2023/08/17 06:58:26;;;;;;;7.55;4.57;;;31.20;64.70;;;;;;6215149;23;20043;-73
2023/08/17 07:00:52;;;;;;;8.20;4.30;;;31.30;64.50;;;;;;6215155;23;20307;-73
2023/08/17 07:03:18;;;;;;;10.48;4.20;;;31.40;64.10;;;;;;6188667;23;20008;-75
2023/08/17 07:05:44;;;;;;;8.65;4.82;;;31.50;63.30;;;;;;6215322;23;19997;-73
2023/08/17 07:08:10;;;;;;;8.63;4.55;;;31.50;63.40;;;;;;6188323;23;20047;-72
2023/08/17 07:10:35;;;;;;;9.88;4.82;;;31.60;63.30;;;;;;6215440;23;20315;-75
2023/08/17 07:13:04;;;;;;;8.38;4.50;;;31.60;63.20;;;;;;6215055;23;20088;-73
2023/08/17 07:15:31;;;;;;;10.43;4.10;;;31.70;63.70;;;;;;6214898;23;20007;-72
2023/08/17 07:17:56;;;;;;;7.60;4.45;;;31.80;63.50;;;;;;6214842;23;20019;-73
2023/08/17 07:20:22;;;;;;;17.73;5.15;;;31.80;63.30;;;;;;6214767;23;20381;-73
2023/08/17 07:22:48;;;;;;;11.93;5.07;;;31.80;63.30;;;;;;6214223;23;20007;-73
2023/08/17 07:25:14;;;;;;;7.18;4.38;;;31.90;62.60;;;;;;6214765;23;20378;-73
2023/08/17 07:27:40;;;;;;;9.50;4.38;;;31.90;63.10;;;;;;6188517;23;20095;-75
2023/08/17 07:30:06;;;;;;;8.90;4.40;;;31.70;63.60;;;;;;6214733;23;20083;-74
2023/08/17 07:32:34;;;;;;;9.85;4.50;;;31.60;64.10;;;;;;6214846;23;20108;-74
2023/08/17 07:35:00;;;;;;;10.05;4.82;;;31.60;64.60;;;;;;6215225;23;20370;-73
2023/08/17 07:37:32;;;;;;;6.88;3.85;;;31.40;64.80;;;;;;6215086;23;20044;-74
2023/08/17 07:39:58;;;;;;;9.05;4.28;;;31.40;65.00;;;;;;6214747;23;20507;-74
2023/08/17 07:42:24;;;;;;;6.55;3.60;;;31.60;64.70;;;;;;6213715;23;20000;-73
2023/08/17 07:44:50;;;;;;;8.02;4.55;;;31.70;64.40;;;;;;6214554;23;19996;-72
2023/08/17 07:47:15;;;;;;;7.32;4.47;;;31.80;64.20;;;;;;6214934;23;20011;-72
2023/08/17 07:49:41;;;;;;;8.93;4.47;;;31.90;64.30;;;;;;6214495;23;20020;-73
2023/08/17 07:52:07;;;;;;;10.77;4.53;;;31.80;64.00;;;;;;6214894;23;20012;-72
2023/08/17 07:54:33;;;;;;;8.77;4.45;;;31.80;64.00;;;;;;6214247;23;20502;-74
2023/08/17 07:56:59;;;;;;;11.13;4.68;;;31.70;63.90;;;;;;6214023;23;20016;-74
2023/08/17 07:59:25;;;;;;;8.63;4.55;;;31.60;63.60;;;;;;6187313;23;20057;-75
2023/08/17 08:01:50;;;;;;;9.00;4.10;;;31.50;64.20;;;;;;6214219;23;20072;-73
2023/08/17 08:04:16;;;;;;;8.05;4.38;;;31.50;64.40;;;;;;6187103;23;20024;-75
2023/08/17 08:06:42;;;;;;;8.43;4.70;;;31.30;64.90;;;;;;6213769;23;20003;-74
2023/08/17 08:09:08;;;;;;;11.90;4.93;;;31.30;64.50;;;;;;6213930;23;20001;-75
2023/08/17 08:11:34;;;;;;;15.68;5.38;;;31.30;64.40;;;;;;6214319;23;20001;-74
2023/08/17 08:14:00;;;;;;;8.95;4.72;;;31.40;64.30;;;;;;6214023;23;20437;-73
2023/08/17 08:16:27;;;;;;;28.63;8.02;;;31.30;64.20;;;;;;6213774;23;20012;-75
2023/08/17 08:18:53;;;;;;;11.60;5.50;;;31.20;64.80;;;;;;6214100;23;20007;-75
2023/08/17 08:21:18;;;;;;;11.57;5.47;;;31.20;64.50;;;;;;6214646;23;20000;-74
2023/08/17 08:23:44;;;;;;;17.75;6.70;;;31.20;65.20;;;;;;6214406;23;20005;-73
2023/08/17 08:26:10;;;;;;;18.30;6.15;;;31.20;65.00;;;;;;6214039;23;19993;-73
2023/08/17 08:28:35;;;;;;;17.63;6.53;;;31.10;64.50;;;;;;6222959;23;20032;-74
2023/08/17 08:31:03;;;;;;;11.82;5.40;;;31.10;64.90;;;;;;6213878;23;19997;-74
2023/08/17 08:33:29;;;;;;;8.90;5.10;;;31.00;64.90;;;;;;6187341;23;20004;-76
2023/08/17 08:35:54;;;;;;;9.82;5.00;;;31.00;65.30;;;;;;6213992;23;20316;-73
2023/08/17 08:38:20;;;;;;;16.20;6.00;;;30.90;65.50;;;;;;6213892;23;20327;-74
2023/08/17 08:40:47;;;;;;;9.27;5.10;;;30.90;65.40;;;;;;6213984;23;20005;-74
2023/08/17 08:43:14;;;;;;;7.35;5.00;;;30.80;65.60;;;;;;6213544;23;20103;-76
2023/08/17 08:45:44;;;;;;;11.95;5.07;;;30.70;65.90;;;;;;6186844;23;20004;-75
2023/08/17 08:48:11;;;;;;;14.43;6.15;;;30.70;66.00;;;;;;6212709;23;20431;-74
2023/08/17 08:50:40;;;;;;;23.05;7.20;;;30.70;65.70;;;;;;6213419;23;20153;-76
2023/08/17 08:53:13;;;;;;;35.92;8.38;;;30.70;65.60;;;;;;6213812;23;20024;-75
2023/08/17 08:55:52;;;;;;;18.98;6.13;;;30.70;65.60;;;;;;6213359;23;20000;-76
2023/08/17 08:58:18;;;;;;;36.58;10.13;;;30.80;66.60;;;;;;6213825;23;20393;-73
2023/08/17 09:00:47;;;;;;;11.55;5.38;;;30.80;65.60;;;;;;6214033;23;20012;-77
2023/08/17 09:03:14;;;;;;;13.45;5.53;;;30.80;65.90;;;;;;6213616;23;20446;-75
2023/08/17 09:05:42;;;;;;;8.50;4.68;;;30.80;65.90;;;;;;6213015;23;20017;-74
2023/08/17 09:08:11;;;;;;;13.23;5.18;;;30.80;66.00;;;;;;6214053;23;20296;-78
2023/08/17 09:10:38;;;;;;;6.72;4.80;;;30.80;66.50;;;;;;6213381;23;20032;-74
2023/08/17 09:13:03;;;;;;;21.92;6.85;;;30.70;65.80;;;;;;6213781;23;20001;-73
2023/08/17 09:15:29;;;;;;;11.40;5.30;;;30.70;66.00;;;;;;6186565;23;20004;-77
2023/08/17 09:17:56;;;;;;;29.05;7.18;;;30.70;65.70;;;;;;6212921;23;20012;-76
2023/08/17 09:20:40;;;;;;;42.97;9.10;;;30.80;65.70;;;;;;6213536;23;20000;-73
2023/08/17 09:23:13;;;;;;;12.32;4.65;;;30.80;65.40;;;;;;6213651;23;20466;-73
2023/08/17 09:25:43;;;;;;;13.95;4.97;;;30.80;66.20;;;;;;6213582;23;20361;-72
2023/08/17 09:28:10;;;;;;;7.78;4.72;;;30.90;65.50;;;;;;6213546;23;20024;-72
2023/08/17 09:30:57;;;;;;;7.90;4.63;;;31.00;65.50;;;;;;6213747;23;20008;-73
2023/08/17 09:33:25;;;;;;;20.92;6.05;;;31.00;65.30;;;;;;6186903;23;20403;-71
2023/08/17 09:35:52;;;;;;;7.75;5.22;;;31.00;65.30;;;;;;6213023;23;20005;-73
2023/08/17 09:38:18;;;;;;;11.35;5.60;;;31.10;65.00;;;;;;6187168;23;20033;-73
2023/08/17 09:40:45;;;;;;;15.10;7.03;;;31.10;64.50;;;;;;6213854;23;20001;-73
2023/08/17 09:43:11;;;;;;;12.70;7.10;;;31.10;64.50;;;;;;6213472;23;20032;-73
2023/08/17 09:45:40;;;;;;;10.68;5.80;;;31.10;64.70;;;;;;6214016;23;20005;-74
2023/08/17 09:48:08;;;;;;;8.38;5.22;;;31.10;64.80;;;;;;6215643;23;20055;-74
2023/08/17 09:50:34;;;;;;;13.35;6.18;;;31.20;64.80;;;;;;6216172;23;20071;-74
2023/08/17 09:52:59;;;;;;;11.10;5.97;;;31.20;64.40;;;;;;6215941;23;20009;-73
2023/08/17 09:55:26;;;;;;;10.70;5.68;;;31.20;64.20;;;;;;6215363;23;20005;-74
2023/08/17 09:57:52;;;;;;;10.60;5.80;;;31.20;64.20;;;;;;6215638;23;20012;-74
2023/08/17 10:00:19;;;;;;;12.88;6.32;;;31.30;64.50;;;;;;6215236;23;20442;-76
2023/08/17 10:02:49;;;;;;;21.42;7.10;;;31.30;64.50;;;;;;6215648;23;20316;-75
2023/08/17 10:05:18;;;;;;;10.52;5.63;;;31.30;64.30;;;;;;6214809;23;20387;-73
2023/08/17 10:07:50;;;;;;;10.75;5.78;;;31.40;64.10;;;;;;6213768;23;20004;-75
2023/08/17 10:10:22;;;;;;;7.47;5.07;;;31.50;64.10;;;;;;6214737;23;20001;-75
2023/08/17 10:13:31;;;;;;;8.68;5.72;;;31.60;63.90;;;;;;6215684;23;20059;-78
2023/08/17 10:16:11;;;;;;;11.63;5.90;;;31.60;63.80;;;;;;6156428;23;20013;-78
2023/08/17 10:18:53;;;;;;;10.85;5.93;;;31.80;62.80;;;;;;6216028;23;20005;-78
2023/08/17 10:21:36;;;;;;;8.48;5.70;;;31.80;62.30;;;;;;6215688;23;20024;-76
2023/08/17 10:24:03;;;;;;;8.85;6.45;;;31.90;61.50;;;;;;6216023;23;20004;-76
2023/08/17 10:26:30;;;;;;;8.65;5.47;;;31.90;61.50;;;;;;6216053;23;20001;-76
2023/08/17 10:28:58;;;;;;;9.00;5.95;;;31.90;60.70;;;;;;6216387;23;20001;-77
2023/08/17 10:31:25;;;;;;;10.10;6.38;;;32.00;59.90;;;;;;6215677;23;20004;-76
2023/08/17 10:33:51;;;;;;;9.25;6.32;;;32.10;60.30;;;;;;6216288;23;20104;-76
2023/08/17 10:36:18;;;;;;;8.55;5.95;;;32.10;59.40;;;;;;6215667;23;20070;-77
2023/08/17 10:38:44;;;;;;;7.35;6.05;;;32.20;59.70;;;;;;6215940;23;20315;-77
2023/08/17 10:41:14;;;;;;;9.63;6.30;;;32.30;58.70;;;;;;6215891;23;19996;-76
2023/08/17 10:43:59;;;;;;;10.15;6.07;;;32.40;58.30;;;;;;6215879;23;20009;-76
2023/08/17 10:46:45;;;;;;;8.57;6.63;;;32.50;57.70;;;;;;6216066;23;20008;-75
2023/08/17 10:49:31;;;;;;;9.20;6.13;;;32.60;57.70;;;;;;6215657;23;20331;-76
2023/08/17 10:52:03;;;;;;;13.07;6.53;;;32.60;57.70;;;;;;6215249;23;20015;-77
2023/08/17 10:54:39;;;;;;;10.05;7.15;;;32.70;57.50;;;;;;6216392;23;20045;-77
2023/08/17 10:57:43;;;;;;;10.43;6.32;;;32.70;57.70;;;;;;6215429;23;20071;-76
2023/08/17 11:00:16;;;;;;;10.57;6.20;;;32.80;57.70;;;;;;6215927;23;20001;-77
2023/08/17 11:02:55;;;;;;;9.60;6.43;;;32.80;57.50;;;;;;6215897;23;20216;-75
2023/08/17 11:05:53;;;;;;;8.65;6.03;;;32.80;57.30;;;;;;6215430;23;20020;-77
2023/08/17 11:08:31;;;;;;;8.85;6.43;;;32.80;57.10;;;;;;6215524;23;20047;-76
2023/08/17 11:11:13;;;;;;;14.88;6.50;;;32.90;57.40;;;;;;6215611;23;20355;-77
2023/08/17 11:13:41;;;;;;;9.85;6.30;;;33.00;57.30;;;;;;6215631;23;20007;-75
2023/08/17 11:16:09;;;;;;;7.18;5.82;;;33.10;56.90;;;;;;6215377;23;20058;-76
2023/08/17 11:18:35;;;;;;;10.82;6.47;;;33.10;56.50;;;;;;6215403;23;20005;-77
2023/08/17 11:21:03;;;;;;;10.48;6.20;;;33.20;56.50;;;;;;6215193;23;20450;-75
2023/08/17 11:23:30;;;;;;;6.75;5.93;;;33.20;56.50;;;;;;6215330;23;20008;-76
2023/08/17 11:25:56;;;;;;;9.80;5.75;;;33.30;56.50;;;;;;6215047;23;20001;-76
2023/08/17 11:28:23;;;;;;;8.60;5.95;;;33.40;55.90;;;;;;6215272;23;20445;-77
2023/08/17 11:31:02;;;;;;;8.23;5.82;;;33.50;55.50;;;;;;6218563;23;20032;-76
2023/08/17 11:33:30;;;;;;;7.70;6.20;;;33.60;54.10;;;;;;6217504;23;19996;-76
2023/08/17 11:36:00;;;;;;;8.00;5.70;;;33.60;55.10;;;;;;6215316;23;20032;-76
2023/08/17 11:38:29;;;;;;;9.65;5.63;;;33.70;55.00;;;;;;6215494;23;20040;-78
2023/08/17 11:40:57;;;;;;;7.38;5.20;;;33.80;54.60;;;;;;6215167;23;20000;-76
2023/08/17 11:43:23;;;;;;;8.07;5.53;;;34.00;54.70;;;;;;6215431;23;20016;-77
2023/08/17 11:45:49;;;;;;;8.02;5.28;;;34.00;54.40;;;;;;6215510;23;20001;-75
2023/08/17 11:48:16;;;;;;;6.70;4.93;;;34.10;55.70;;;;;;6215532;23;20040;-76
2023/08/17 11:50:42;;;;;;;8.13;5.20;;;34.10;56.80;;;;;;6215336;23;20019;-76
2023/08/17 11:53:08;;;;;;;12.23;5.10;;;34.10;57.30;;;;;;6188689;23;20016;-76
2023/08/17 11:55:34;;;;;;;9.35;5.40;;;34.10;57.70;;;;;;6215442;23;20012;-75
2023/08/17 11:58:01;;;;;;;7.55;5.05;;;34.20;57.80;;;;;;6215386;23;20012;-75
2023/08/17 12:00:27;;;;;;;8.18;4.85;;;34.10;57.80;;;;;;6215001;23;20004;-76
2023/08/17 12:02:53;;;;;;;11.68;5.25;;;34.10;57.80;;;;;;6216120;23;20087;-75
2023/08/17 12:05:23;;;;;;;8.20;4.60;;;34.10;58.10;;;;;;6215178;23;20013;-75
2023/08/17 12:07:50;;;;;;;7.15;4.45;;;34.10;58.10;;;;;;6214736;23;20100;-75
2023/08/17 12:10:17;;;;;;;7.85;4.63;;;34.10;58.10;;;;;;6214907;23;20335;-76
2023/08/17 12:12:43;;;;;;;8.63;5.03;;;34.20;58.00;;;;;;6214860;23;20423;-76
2023/08/17 12:15:11;;;;;;;10.07;4.82;;;34.10;57.80;;;;;;6214977;23;19997;-75
2023/08/17 12:17:45;;;;;;;8.90;4.85;;;34.20;57.50;;;;;;6214689;23;20052;-75
2023/08/17 12:20:19;;;;;;;6.18;4.38;;;34.20;57.60;;;;;;6214926;23;20024;-76
2023/08/17 12:22:45;;;;;;;12.43;4.82;;;34.20;57.70;;;;;;6214682;23;20010;-77
2023/08/17 12:25:11;;;;;;;7.82;4.80;;;34.20;57.40;;;;;;6214936;23;19997;-76
2023/08/17 12:27:37;;;;;;;9.30;5.15;;;34.30;57.30;;;;;;6214873;23;20005;-76
2023/08/17 12:30:03;;;;;;;8.63;4.85;;;34.20;56.70;;;;;;6214893;23;20001;-76
2023/08/17 12:32:29;;;;;;;11.68;4.93;;;34.20;56.50;;;;;;6215007;23;20001;-76
2023/08/17 12:34:54;;;;;;;8.55;4.80;;;34.10;56.90;;;;;;6215204;23;20001;-75
2023/08/17 12:37:21;;;;;;;6.70;4.13;;;34.10;57.10;;;;;;6214789;23;20019;-77
2023/08/17 12:39:48;;;;;;;11.98;4.35;;;34.10;57.10;;;;;;6187656;23;20059;-77
2023/08/17 12:42:14;;;;;;;10.07;4.93;;;34.10;57.50;;;;;;6214565;23;20008;-76
2023/08/17 12:44:41;;;;;;;7.68;4.40;;;34.10;57.80;;;;;;6214503;23;20071;-75